Time;durP1;ratioP1;P1;durP2;ratioP2;P2;SDS_P1;SDS_P2;PMS_P1;PMS_P2;Temp;Humidity;BMP_temperature;BMP_pressure;BME280_temperature;BME280_humidity;BME280_pressure;Samples;Min_cycle;Max_cycle;Signal;HPM_P1;HPM_P2
2023/07/29 00:00:16;;;;;;;4.18;2.80;;;;;;;20.59;46.77;94849.84;5109851;28;20024;-77
2023/07/29 00:02:42;;;;;;;3.60;2.78;;;;;;;20.58;46.73;94854.63;5110145;28;20019;-75
2023/07/29 00:05:07;;;;;;;5.47;2.97;;;;;;;20.60;46.80;94857.69;5109657;27;20028;-75
2023/07/29 00:07:33;;;;;;;5.13;3.28;;;;;;;20.60;46.65;94856.94;5110056;28;20119;-75
2023/07/29 00:09:58;;;;;;;4.57;3.17;;;;;;;20.55;46.52;94861.25;5109667;28;20024;-76
2023/07/29 00:12:24;;;;;;;4.25;3.08;;;;;;;20.53;46.73;94857.41;5109673;28;20548;-76
2023/07/29 00:14:49;;;;;;;5.55;2.97;;;;;;;20.52;46.79;94858.69;5109644;28;20033;-75
2023/07/29 00:17:14;;;;;;;4.25;2.80;;;;;;;20.49;47.11;94848.53;5108768;28;20139;-75
2023/07/29 00:19:40;;;;;;;6.35;3.08;;;;;;;20.45;47.03;94847.97;5109334;28;20043;-76
2023/07/29 00:22:06;;;;;;;6.07;3.05;;;;;;;20.43;47.03;94846.47;5109196;28;20024;-75
2023/07/29 00:24:31;;;;;;;8.98;2.75;;;;;;;20.36;47.40;94844.16;5109157;28;20031;-75
2023/07/29 00:26:56;;;;;;;7.60;4.05;;;;;;;20.28;47.50;94840.31;5109233;28;20020;-75
2023/07/29 00:29:22;;;;;;;3.85;2.72;;;;;;;20.27;47.49;94840.84;5109229;28;20030;-76
2023/07/29 00:31:47;;;;;;;4.45;2.80;;;;;;;20.24;47.46;94836.25;5109162;28;20020;-75
2023/07/29 00:34:17;;;;;;;4.10;2.63;;;;;;;20.18;47.60;94839.00;5109318;28;20452;-75
2023/07/29 00:36:42;;;;;;;4.03;2.90;;;;;;;20.18;47.81;94839.00;5108886;27;20039;-75
2023/07/29 00:39:07;;;;;;;6.55;3.20;;;;;;;20.14;47.66;94838.50;5109526;28;20027;-75
2023/07/29 00:41:33;;;;;;;4.10;2.63;;;;;;;20.14;47.57;94844.09;5109049;28;20093;-75
2023/07/29 00:43:58;;;;;;;3.63;2.75;;;;;;;20.08;47.80;94840.53;5109095;27;20424;-77
2023/07/29 00:46:24;;;;;;;3.72;2.85;;;;;;;20.00;48.01;94831.84;5108764;28;20457;-75
2023/07/29 00:48:49;;;;;;;5.18;2.80;;;;;;;19.97;47.69;94830.06;5108776;28;20027;-77
2023/07/29 00:51:15;;;;;;;5.43;3.20;;;;;;;19.95;47.61;94838.16;5107437;28;20084;-75
2023/07/29 00:53:40;;;;;;;4.07;2.97;;;;;;;19.86;48.20;94832.81;5107601;28;20392;-75
2023/07/29 00:56:06;;;;;;;5.45;2.85;;;;;;;19.81;48.48;94837.09;5107576;28;20051;-75
2023/07/29 00:58:32;;;;;;;4.18;2.90;;;;;;;19.78;48.43;94835.31;5108259;28;20498;-76
2023/07/29 01:00:57;;;;;;;4.28;3.00;;;;;;;19.81;48.45;94833.56;5107396;28;20051;-75
2023/07/29 01:03:22;;;;;;;8.43;3.08;;;;;;;19.77;48.48;94825.41;5090244;28;20455;-77
2023/07/29 01:06:21;;;;;;;5.05;3.15;;;;;;;19.77;48.67;94827.44;5108789;28;20032;-75
2023/07/29 01:08:49;;;;;;;3.75;2.60;;;;;;;19.71;48.71;94827.41;5108794;28;20080;-75
2023/07/29 01:11:24;;;;;;;4.07;3.15;;;;;;;19.71;48.79;94837.81;5107825;28;20019;-76
2023/07/29 01:13:54;;;;;;;3.63;2.80;;;;;;;19.66;48.91;94824.59;5107443;28;20028;-76
2023/07/29 01:16:29;;;;;;;3.65;2.65;;;;;;;19.61;49.13;94832.44;5106538;28;20498;-76
2023/07/29 01:18:55;;;;;;;4.75;3.25;;;;;;;19.60;49.00;94830.16;5108664;28;20489;-77
2023/07/29 01:21:21;;;;;;;6.82;2.90;;;;;;;19.56;49.26;94832.41;5107821;28;20023;-76
2023/07/29 01:23:47;;;;;;;4.47;3.22;;;;;;;19.51;49.38;94828.31;5107887;28;20070;-76
2023/07/29 01:26:12;;;;;;;4.53;3.13;;;;;;;19.50;49.71;94832.38;5107998;27;20490;-76
2023/07/29 01:28:38;;;;;;;4.35;2.88;;;;;;;19.49;49.37;94828.03;5107507;28;20022;-77
2023/07/29 01:31:10;;;;;;;6.93;3.00;;;;;;;19.50;49.56;94829.56;5107920;28;20127;-77
2023/07/29 01:33:40;;;;;;;4.88;3.20;;;;;;;19.47;49.04;94827.00;5107312;28;20110;-76
2023/07/29 01:36:19;;;;;;;5.63;3.13;;;;;;;19.45;49.61;94835.88;5106789;28;20034;-76
2023/07/29 01:38:45;;;;;;;5.25;2.67;;;;;;;19.43;49.24;94829.25;5106944;28;20038;-75
2023/07/29 01:41:11;;;;;;;5.43;3.17;;;;;;;19.36;49.47;94828.47;5106137;28;20023;-75
2023/07/29 01:43:43;;;;;;;4.68;2.85;;;;;;;19.36;49.55;94825.66;5107948;28;20028;-75
2023/07/29 01:46:12;;;;;;;4.75;3.05;;;;;;;19.35;49.84;94831.75;5107378;28;20024;-77
2023/07/29 01:48:38;;;;;;;4.38;3.25;;;;;;;19.29;49.53;94837.28;5107815;28;20028;-77
2023/07/29 01:51:05;;;;;;;4.13;2.72;;;;;;;19.27;49.64;94827.91;5107072;28;20115;-77
2023/07/29 01:53:30;;;;;;;5.65;3.08;;;;;;;19.21;50.10;94821.50;5107815;28;20659;-76
2023/07/29 01:55:57;;;;;;;3.63;3.05;;;;;;;19.22;49.68;94834.97;5107515;28;20023;-76
2023/07/29 01:58:22;;;;;;;4.22;2.90;;;;;;;19.18;50.01;94833.66;5107212;28;20370;-76
2023/07/29 02:00:48;;;;;;;4.78;3.45;;;;;;;19.15;50.11;94832.63;5107024;28;20097;-77
2023/07/29 02:03:13;;;;;;;3.72;2.75;;;;;;;19.13;50.44;94826.03;5106710;28;20028;-75
2023/07/29 02:05:39;;;;;;;4.82;2.63;;;;;;;19.16;50.29;94831.38;5107778;28;20024;-75
2023/07/29 02:08:04;;;;;;;4.10;2.78;;;;;;;19.15;50.16;94835.41;5106943;28;20035;-75
2023/07/29 02:10:30;;;;;;;6.55;3.03;;;;;;;19.13;50.52;94837.16;5107424;28;20035;-75
2023/07/29 02:12:55;;;;;;;5.32;3.15;;;;;;;19.09;50.35;94835.34;5107125;28;20049;-75
2023/07/29 02:15:20;;;;;;;6.53;3.00;;;;;;;19.08;50.62;94838.66;5107172;28;20028;-76
2023/07/29 02:17:46;;;;;;;5.72;3.47;;;;;;;19.10;50.27;94845.25;5107081;28;20040;-76
2023/07/29 02:20:11;;;;;;;5.05;3.03;;;;;;;19.03;50.46;94851.28;5106509;28;20397;-76
2023/07/29 02:22:37;;;;;;;6.45;3.30;;;;;;;19.01;50.94;94847.47;5107558;28;20032;-76
2023/07/29 02:25:02;;;;;;;8.32;4.13;;;;;;;18.95;50.81;94850.19;5106778;28;20024;-75
2023/07/29 02:27:28;;;;;;;4.72;3.20;;;;;;;18.92;50.63;94844.84;5107946;28;20024;-75
2023/07/29 02:29:54;;;;;;;5.03;3.15;;;;;;;18.92;50.69;94842.06;5107258;28;20020;-75
2023/07/29 02:32:20;;;;;;;3.95;3.08;;;;;;;18.88;50.74;94841.53;5107207;28;20027;-76
2023/07/29 02:34:45;;;;;;;5.45;3.03;;;;;;;18.87;50.76;94843.56;5107045;28;20039;-77
2023/07/29 02:37:11;;;;;;;8.57;3.40;;;;;;;18.83;50.56;94841.00;5106931;28;20028;-76
2023/07/29 02:39:36;;;;;;;5.68;3.42;;;;;;;18.82;50.88;94852.63;5107047;28;20031;-76
2023/07/29 02:42:02;;;;;;;3.83;2.88;;;;;;;18.84;50.93;94838.97;5106249;28;20023;-76
2023/07/29 02:44:28;;;;;;;4.55;3.20;;;;;;;18.81;50.78;94845.53;5107226;27;20028;-77
2023/07/29 02:46:55;;;;;;;5.43;3.22;;;;;;;18.79;51.04;94848.78;5105265;28;20548;-76
2023/07/29 02:49:21;;;;;;;6.10;3.15;;;;;;;18.80;50.78;94850.31;5106853;28;20504;-77
2023/07/29 02:51:46;;;;;;;4.22;2.78;;;;;;;18.84;50.65;94852.88;5106547;28;20027;-76
2023/07/29 02:54:12;;;;;;;5.65;2.80;;;;;;;18.76;50.92;94855.38;5106672;28;20449;-76
2023/07/29 02:56:37;;;;;;;4.80;3.00;;;;;;;18.78;51.05;94850.06;5107057;28;20024;-76
2023/07/29 02:59:02;;;;;;;3.35;2.58;;;;;;;18.77;51.09;94850.56;5106429;28;20482;-76
2023/07/29 03:01:28;;;;;;;4.45;3.33;;;;;;;18.75;51.04;94862.19;5107219;28;20031;-76
2023/07/29 03:03:53;;;;;;;6.03;3.30;;;;;;;18.73;51.15;94863.94;5106319;28;20035;-75
2023/07/29 03:06:19;;;;;;;5.88;2.97;;;;;;;18.66;51.24;94867.88;5106792;28;20550;-76
2023/07/29 03:08:44;;;;;;;5.53;3.53;;;;;;;18.64;51.04;94867.63;5106165;28;20118;-74
2023/07/29 03:11:12;;;;;;;4.07;3.05;;;;;;;18.66;51.13;94856.75;5107609;28;20076;-75
2023/07/29 03:13:38;;;;;;;6.22;3.38;;;;;;;18.67;51.18;94863.09;5111190;28;20031;-75
2023/07/29 03:16:16;;;;;;;6.55;3.00;;;;;;;18.65;51.52;94865.59;5109392;28;20200;-75
2023/07/29 03:18:43;;;;;;;4.00;3.40;;;;;;;18.67;51.18;94860.31;5111111;28;20039;-75
2023/07/29 03:21:09;;;;;;;4.18;2.95;;;;;;;18.67;51.35;94863.88;5110326;28;20112;-76
2023/07/29 03:23:34;;;;;;;5.07;3.42;;;;;;;18.62;51.08;94866.56;5110059;28;20028;-76
2023/07/29 03:26:01;;;;;;;5.60;3.63;;;;;;;18.57;51.28;94868.81;5110814;28;20077;-76
2023/07/29 03:28:33;;;;;;;7.07;3.40;;;;;;;18.56;50.92;94867.28;5111195;28;20024;-76
2023/07/29 03:30:58;;;;;;;5.22;3.08;;;;;;;18.58;50.45;94870.34;5110792;28;20047;-75
2023/07/29 03:33:26;;;;;;;4.95;3.35;;;;;;;18.63;50.19;94873.66;5110742;28;20058;-75
2023/07/29 03:35:52;;;;;;;4.78;3.03;;;;;;;18.64;50.21;94875.19;5110675;28;20035;-75
2023/07/29 03:38:17;;;;;;;5.70;3.38;;;;;;;18.64;50.49;94866.84;5110038;28;20114;-76
2023/07/29 03:40:43;;;;;;;4.78;3.58;;;;;;;18.60;50.45;94869.09;5110813;28;20107;-77
2023/07/29 03:43:08;;;;;;;5.03;3.17;;;;;;;18.60;50.61;94866.31;5110133;28;20051;-76
2023/07/29 03:45:35;;;;;;;5.85;3.13;;;;;;;18.61;50.23;94867.84;5110736;28;20027;-76
2023/07/29 03:48:01;;;;;;;3.50;2.83;;;;;;;18.63;50.27;94868.84;5110232;28;20069;-76
2023/07/29 03:50:27;;;;;;;3.38;2.80;;;;;;;18.58;50.18;94861.25;5110737;28;20027;-77
2023/07/29 03:52:53;;;;;;;5.47;3.15;;;;;;;18.61;50.29;94865.06;5109909;28;20468;-78
2023/07/29 03:55:18;;;;;;;3.70;2.95;;;;;;;18.67;50.08;94871.44;5109874;28;20024;-76
2023/07/29 03:57:44;;;;;;;5.13;3.03;;;;;;;18.67;50.28;94860.31;5110084;28;20110;-76
2023/07/29 04:00:10;;;;;;;4.25;3.30;;;;;;;18.65;50.13;94868.38;5109358;28;20110;-76
2023/07/29 04:02:38;;;;;;;6.85;3.10;;;;;;;18.66;50.23;94870.69;5110679;27;20032;-77
2023/07/29 04:05:06;;;;;;;4.00;3.10;;;;;;;18.68;50.15;94870.19;5109461;28;20036;-77
2023/07/29 04:07:31;;;;;;;3.00;2.70;;;;;;;18.65;49.95;94871.94;5110459;28;20028;-78
2023/07/29 04:09:57;;;;;;;5.75;2.97;;;;;;;18.71;49.60;94875.56;5108292;28;20078;-75
2023/07/29 04:12:23;;;;;;;5.20;2.75;;;;;;;18.74;49.81;94880.13;5109840;28;20023;-75
2023/07/29 04:14:49;;;;;;;5.07;2.60;;;;;;;18.73;49.63;94877.84;5109803;28;20024;-75
2023/07/29 04:17:14;;;;;;;3.20;2.80;;;;;;;18.75;49.83;94872.53;5109212;28;20050;-76
2023/07/29 04:19:39;;;;;;;4.57;2.97;;;;;;;18.74;49.59;94869.00;5110217;28;20027;-75
2023/07/29 04:22:05;;;;;;;7.03;3.15;;;;;;;18.76;49.58;94872.06;5109351;27;20558;-75
2023/07/29 04:24:30;;;;;;;3.55;2.90;;;;;;;18.74;49.89;94863.44;5109690;28;20125;-76
2023/07/29 04:26:56;;;;;;;7.63;3.60;;;;;;;18.77;49.77;94870.81;5109357;28;20439;-76
2023/07/29 04:29:22;;;;;;;3.95;2.85;;;;;;;18.77;50.11;94887.53;5109934;27;20028;-77
2023/07/29 04:31:51;;;;;;;3.67;3.22;;;;;;;18.78;50.26;94879.94;5109775;28;20473;-76
2023/07/29 04:34:20;;;;;;;4.68;3.53;;;;;;;18.82;49.84;94875.66;5109682;28;20107;-76
2023/07/29 04:36:46;;;;;;;5.22;3.83;;;;;;;18.85;49.87;94873.91;5109570;28;20028;-76
2023/07/29 04:39:12;;;;;;;5.35;3.55;;;;;;;18.88;49.48;94881.28;5108800;28;20107;-76
2023/07/29 04:41:37;;;;;;;5.70;3.17;;;;;;;18.84;49.50;94883.53;5109666;28;20123;-76
2023/07/29 04:44:03;;;;;;;4.90;3.33;;;;;;;18.83;49.96;94882.75;5108665;28;20080;-76
2023/07/29 04:46:28;;;;;;;6.13;3.30;;;;;;;18.85;49.67;94882.25;5109749;28;20403;-76
2023/07/29 04:48:54;;;;;;;4.72;3.08;;;;;;;18.91;49.95;94885.09;5108580;28;20056;-75
2023/07/29 04:51:19;;;;;;;6.57;3.33;;;;;;;18.91;50.08;94888.66;5109217;28;20035;-76
2023/07/29 04:53:45;;;;;;;3.92;3.38;;;;;;;18.95;50.23;94891.22;5107611;28;20076;-75
2023/07/29 04:56:10;;;;;;;4.35;3.30;;;;;;;18.97;50.66;94902.63;5108950;28;20081;-76
2023/07/29 04:58:36;;;;;;;5.35;3.60;;;;;;;19.07;50.34;94895.63;5107936;28;20035;-76
2023/07/29 05:01:02;;;;;;;5.90;3.92;;;;;;;19.07;50.01;94898.41;5108781;28;20024;-75
2023/07/29 05:03:28;;;;;;;3.88;3.47;;;;;;;19.09;50.00;94904.25;5109779;27;20106;-75
2023/07/29 05:05:55;;;;;;;5.50;3.72;;;;;;;19.11;49.65;94898.97;5108654;28;20118;-76
2023/07/29 05:08:21;;;;;;;7.80;4.32;;;;;;;19.12;49.67;94908.84;5109334;28;20028;-75
2023/07/29 05:10:50;;;;;;;6.35;3.63;;;;;;;19.14;49.98;94906.31;5107622;28;20035;-74
2023/07/29 05:13:16;;;;;;;4.75;3.65;;;;;;;19.15;50.06;94904.28;5108751;27;20063;-75
2023/07/29 05:15:41;;;;;;;6.97;4.38;;;;;;;19.20;49.56;94906.38;5108678;28;20400;-76
2023/07/29 05:18:06;;;;;;;6.70;4.57;;;;;;;19.20;49.56;94912.69;5107777;28;20057;-75
2023/07/29 05:20:32;;;;;;;4.75;3.35;;;;;;;19.24;49.81;94906.91;5108912;27;20092;-77
2023/07/29 05:22:57;;;;;;;4.65;3.60;;;;;;;19.24;50.26;94904.13;5108241;28;20111;-76
2023/07/29 05:25:22;;;;;;;4.40;3.92;;;;;;;19.26;49.87;94909.97;5108847;28;20031;-75
2023/07/29 05:27:48;;;;;;;7.75;4.30;;;;;;;19.29;49.89;94912.53;5108039;27;20563;-77
2023/07/29 05:30:13;;;;;;;8.55;4.45;;;;;;;19.30;50.28;94916.84;5109073;28;20012;-76
2023/07/29 05:32:39;;;;;;;6.25;4.05;;;;;;;19.34;50.14;94914.59;5108317;28;20059;-76
2023/07/29 05:35:07;;;;;;;5.00;4.03;;;;;;;19.39;50.31;94907.56;5106991;28;20026;-76
2023/07/29 05:37:32;;;;;;;7.05;4.15;;;;;;;19.44;50.20;94915.19;5108191;28;20491;-77
2023/07/29 05:39:58;;;;;;;6.15;4.07;;;;;;;19.56;49.74;94913.25;5107708;28;20110;-76
2023/07/29 05:42:23;;;;;;;7.57;4.07;;;;;;;19.61;49.60;94916.09;5108312;28;20019;-76
2023/07/29 05:44:49;;;;;;;6.03;4.15;;;;;;;19.61;49.74;94909.72;5107378;28;20028;-76
2023/07/29 05:47:14;;;;;;;6.30;4.45;;;;;;;19.64;49.70;94919.91;5108054;28;20051;-75
2023/07/29 05:49:40;;;;;;;5.05;4.30;;;;;;;19.68;49.74;94914.13;5106230;28;20168;-76
2023/07/29 05:52:05;;;;;;;8.38;4.70;;;;;;;19.72;49.91;94917.41;5108097;28;20606;-76
2023/07/29 05:54:31;;;;;;;5.47;3.95;;;;;;;19.75;49.69;94917.19;5107851;28;20059;-76
2023/07/29 05:56:56;;;;;;;7.32;4.53;;;;;;;19.87;49.65;94918.03;5107354;28;20080;-76
2023/07/29 05:59:21;;;;;;;7.20;4.70;;;;;;;19.91;49.54;94910.19;5107770;28;20475;-77
2023/07/29 06:01:47;;;;;;;7.47;4.30;;;;;;;19.94;49.71;94914.00;5107279;28;20011;-76
2023/07/29 06:04:12;;;;;;;7.15;4.38;;;;;;;20.04;49.69;94916.09;5108090;28;20527;-76
2023/07/29 06:06:37;;;;;;;7.65;4.88;;;;;;;20.10;49.53;94922.47;5105764;28;20023;-76
2023/07/29 06:09:03;;;;;;;6.70;4.28;;;;;;;20.14;49.57;94911.06;5107660;28;20118;-76
2023/07/29 06:11:29;;;;;;;7.38;4.70;;;;;;;20.21;49.55;94918.19;5107249;28;20031;-78
2023/07/29 06:13:54;;;;;;;6.00;5.40;;;;;;;20.28;48.91;94912.13;5107463;28;20023;-76
2023/07/29 06:16:20;;;;;;;8.50;5.82;;;;;;;20.31;48.86;94913.94;5107010;28;20396;-76
2023/07/29 06:18:45;;;;;;;7.50;5.43;;;;;;;20.34;48.63;94910.88;5106802;28;20054;-76
2023/07/29 06:21:16;;;;;;;8.43;5.35;;;;;;;20.48;48.93;94909.19;5107477;28;20058;-77
2023/07/29 06:23:42;;;;;;;8.07;5.13;;;;;;;20.52;48.70;94908.94;5105338;28;20501;-76
2023/07/29 06:26:08;;;;;;;9.40;5.25;;;;;;;20.62;47.97;94896.28;5107974;28;20024;-77
2023/07/29 06:28:33;;;;;;;7.47;4.72;;;;;;;20.74;48.53;94900.63;5106982;28;20024;-77
2023/07/29 06:30:59;;;;;;;6.95;5.20;;;;;;;20.94;47.63;94891.28;5105915;28;20031;-76
2023/07/29 06:33:24;;;;;;;9.63;5.22;;;;;;;21.03;47.42;94901.44;5105774;28;20020;-76
2023/07/29 06:35:49;;;;;;;7.15;4.45;;;;;;;21.02;47.47;94897.88;5106760;28;20030;-76
2023/07/29 06:38:19;;;;;;;7.93;4.70;;;;;;;21.02;47.70;94897.13;5107002;28;20030;-75
2023/07/29 06:40:44;;;;;;;7.03;4.43;;;;;;;21.07;47.69;94897.13;5106716;28;20027;-75
2023/07/29 06:43:09;;;;;;;8.40;5.10;;;;;;;21.30;47.47;94888.78;5107388;28;20418;-76
2023/07/29 06:45:35;;;;;;;5.20;4.32;;;;;;;21.31;47.60;94888.25;5106620;28;20023;-75
2023/07/29 06:48:00;;;;;;;8.18;4.45;;;;;;;21.35;47.41;94888.00;5105698;28;20460;-75
2023/07/29 06:50:26;;;;;;;9.57;4.75;;;;;;;21.47;46.97;94886.72;5106406;28;20027;-76
2023/07/29 06:52:51;;;;;;;8.82;4.20;;;;;;;21.59;46.48;94893.84;5107047;28;20024;-77
2023/07/29 06:55:16;;;;;;;6.05;4.30;;;;;;;21.74;45.87;94891.53;5106800;28;20543;-76
2023/07/29 06:57:42;;;;;;;6.05;4.18;;;;;;;21.79;46.08;94889.97;5106339;28;20028;-75
2023/07/29 07:00:09;;;;;;;9.30;4.57;;;;;;;21.87;45.66;94891.00;5106902;28;20448;-76
2023/07/29 07:02:34;;;;;;;8.18;4.22;;;;;;;21.94;45.75;94896.06;5105861;28;20084;-75
2023/07/29 07:04:59;;;;;;;6.70;4.55;;;;;;;22.04;45.73;94892.97;5107485;28;20020;-75
2023/07/29 07:07:25;;;;;;;7.80;4.60;;;;;;;22.11;45.33;94895.28;5106326;28;20060;-76
2023/07/29 07:09:50;;;;;;;10.40;5.15;;;;;;;22.24;44.68;94887.84;5107377;28;20016;-76
2023/07/29 07:12:16;;;;;;;8.20;4.57;;;;;;;22.33;44.34;94886.78;5106222;28;20035;-76
2023/07/29 07:14:41;;;;;;;7.05;4.32;;;;;;;22.35;45.20;94892.63;5106573;28;20031;-76
2023/07/29 07:17:06;;;;;;;7.30;4.50;;;;;;;22.49;44.64;94894.34;5106489;28;20051;-76
2023/07/29 07:19:33;;;;;;;7.07;4.32;;;;;;;22.66;44.27;94890.72;5105617;28;20446;-76
2023/07/29 07:21:58;;;;;;;6.00;4.03;;;;;;;22.66;44.18;94896.31;5107283;28;20028;-75
2023/07/29 07:24:24;;;;;;;7.60;4.47;;;;;;;22.75;44.06;94888.34;5105913;28;20061;-76
2023/07/29 07:26:49;;;;;;;6.97;3.92;;;;;;;22.86;43.74;94890.31;5106821;28;20052;-75
2023/07/29 07:29:15;;;;;;;4.85;3.75;;;;;;;22.88;43.88;94889.81;5105670;28;20110;-76
2023/07/29 07:31:40;;;;;;;7.38;3.92;;;;;;;22.98;43.86;94883.38;5106487;28;20511;-76
2023/07/29 07:34:05;;;;;;;5.55;3.40;;;;;;;23.11;42.96;94880.00;5106327;28;20027;-76
2023/07/29 07:36:31;;;;;;;6.07;3.92;;;;;;;23.17;43.35;94869.50;5106251;28;20024;-76
2023/07/29 07:38:56;;;;;;;8.20;3.70;;;;;;;23.32;42.58;94872.69;5106664;28;20023;-76
2023/07/29 07:41:22;;;;;;;7.78;4.28;;;;;;;23.42;42.61;94875.16;5105943;28;20071;-75
2023/07/29 07:43:47;;;;;;;11.20;4.22;;;;;;;23.55;42.17;94870.44;5106934;28;20441;-76
2023/07/29 07:46:13;;;;;;;5.38;3.65;;;;;;;23.66;41.55;94869.59;5105300;28;20083;-76
2023/07/29 07:48:38;;;;;;;6.70;3.85;;;;;;;23.85;40.69;94878.09;5106558;28;20037;-76
2023/07/29 07:51:13;;;;;;;7.53;3.78;;;;;;;23.89;40.74;94875.75;5105901;28;20030;-76
2023/07/29 07:53:40;;;;;;;5.18;3.38;;;;;;;24.04;40.27;94884.53;5106089;28;20498;-76
2023/07/29 07:56:05;;;;;;;6.63;3.75;;;;;;;24.13;39.85;94882.63;5105268;28;20020;-77
2023/07/29 07:58:31;;;;;;;15.10;4.00;;;;;;;24.18;39.76;94879.00;5105096;28;20099;-76
2023/07/29 08:01:06;;;;;;;7.10;3.80;;;;;;;24.25;39.96;94875.59;5111043;28;20072;-76
2023/07/29 08:03:32;;;;;;;5.03;3.60;;;;;;;24.40;39.75;94878.00;5107858;28;20023;-76
2023/07/29 08:05:57;;;;;;;6.03;3.40;;;;;;;24.45;39.85;94872.31;5110367;28;20026;-76
2023/07/29 08:08:23;;;;;;;6.32;3.58;;;;;;;24.52;40.02;94879.38;5109350;28;20016;-76
2023/07/29 08:10:48;;;;;;;5.65;3.30;;;;;;;24.75;39.34;94879.84;5110268;28;20035;-76
2023/07/29 08:13:13;;;;;;;7.43;3.78;;;;;;;24.83;39.01;94881.53;5109713;28;20023;-77
2023/07/29 08:15:40;;;;;;;3.83;3.05;;;;;;;24.94;38.12;94872.16;5109472;28;20104;-76
2023/07/29 08:18:06;;;;;;;5.18;3.13;;;;;;;25.07;37.63;94871.50;5110677;28;20560;-76
2023/07/29 08:20:32;;;;;;;5.35;3.60;;;;;;;25.14;37.89;94873.69;5108864;28;20125;-76
2023/07/29 08:22:58;;;;;;;6.80;3.20;;;;;;;25.29;37.87;94873.19;5110607;28;20042;-76
2023/07/29 08:25:23;;;;;;;5.07;3.17;;;;;;;25.39;37.43;94874.28;5108738;28;20027;-76
2023/07/29 08:27:48;;;;;;;4.32;3.20;;;;;;;25.51;37.45;94881.25;5110336;28;20488;-77
2023/07/29 08:30:15;;;;;;;9.38;3.78;;;;;;;25.63;36.96;94876.19;5108800;28;20024;-76
2023/07/29 08:32:41;;;;;;;6.68;3.20;;;;;;;25.74;36.37;94872.44;5109431;28;20020;-75
2023/07/29 08:35:07;;;;;;;4.22;3.35;;;;;;;25.86;36.05;94874.56;5110028;28;20031;-76
2023/07/29 08:37:33;;;;;;;6.28;3.97;;;;;;;26.01;35.02;94871.19;5108597;27;20032;-76
2023/07/29 08:39:58;;;;;;;5.32;3.25;;;;;;;26.07;35.37;94866.19;5109828;28;20080;-77
2023/07/29 08:42:29;;;;;;;4.47;3.15;;;;;;;26.07;35.47;94845.72;5108428;28;20083;-76
2023/07/29 08:44:55;;;;;;;14.63;7.18;;;;;;;26.36;33.95;94857.94;5108693;28;20019;-76
2023/07/29 08:47:20;;;;;;;6.22;3.70;;;;;;;26.37;33.96;94863.03;5107506;28;20020;-79
2023/07/29 08:49:46;;;;;;;9.52;5.55;;;;;;;26.52;33.91;94854.06;5109499;28;20518;-76
2023/07/29 08:52:12;;;;;;;4.18;3.20;;;;;;;26.66;33.29;94854.78;5107421;28;20494;-77
2023/07/29 08:54:37;;;;;;;6.50;4.25;;;;;;;26.74;33.42;94842.31;5107238;28;20107;-76
2023/07/29 08:57:03;;;;;;;6.28;3.70;;;;;;;26.96;32.13;94852.31;5091218;28;20023;-76
2023/07/29 08:59:29;;;;;;;8.65;4.30;;;;;;;27.01;32.05;94859.13;5107905;28;20027;-76
2023/07/29 09:01:57;;;;;;;3.75;1.98;;;;;;;27.18;30.96;94850.28;5110022;28;20023;-75
2023/07/29 09:04:23;;;;;;;2.97;1.85;;;;;;;27.27;30.71;94847.75;5108315;28;20024;-76
2023/07/29 09:06:50;;;;;;;5.53;2.15;;;;;;;27.44;31.01;94849.41;5109064;28;20548;-76
2023/07/29 09:09:16;;;;;;;3.08;1.60;;;;;;;27.56;30.01;94847.06;5108281;28;20023;-76
2023/07/29 09:11:41;;;;;;;2.78;1.85;;;;;;;27.63;30.15;94833.00;5108558;28;20500;-76
2023/07/29 09:14:06;;;;;;;3.08;2.03;;;;;;;27.84;30.43;94840.72;5109089;28;20030;-76
2023/07/29 09:16:34;;;;;;;6.10;1.90;;;;;;;28.01;29.88;94833.31;5106157;28;20035;-76
2023/07/29 09:19:03;;;;;;;2.80;1.92;;;;;;;28.21;29.57;94837.34;5107848;28;20035;-77
2023/07/29 09:21:29;;;;;;;7.32;1.95;;;;;;;28.33;28.94;94825.78;5107106;28;20049;-77
2023/07/29 09:23:55;;;;;;;4.35;2.47;;;;;;;28.45;28.49;94829.81;5107553;28;20032;-77
2023/07/29 09:26:27;;;;;;;2.53;1.90;;;;;;;28.49;28.95;94828.09;5106550;28;20020;-77
2023/07/29 09:28:54;;;;;;;3.00;1.80;;;;;;;28.67;28.33;94825.53;5108471;28;20529;-77
2023/07/29 09:31:21;;;;;;;3.97;2.00;;;;;;;28.84;27.90;94828.59;5108175;28;20081;-76
2023/07/29 09:33:46;;;;;;;2.72;1.80;;;;;;;29.04;27.43;94824.16;5107401;28;20031;-77
2023/07/29 09:36:11;;;;;;;5.53;3.13;;;;;;;29.17;27.48;94817.59;5108797;28;20532;-77
2023/07/29 09:38:37;;;;;;;2.83;1.70;;;;;;;29.32;26.84;94824.03;5106715;28;20383;-77
2023/07/29 09:41:03;;;;;;;2.95;1.70;;;;;;;29.44;27.16;94818.00;5108709;28;20019;-76
2023/07/29 09:43:32;;;;;;;5.50;2.13;;;;;;;29.61;26.77;94806.88;5106640;28;20566;-78
2023/07/29 09:46:05;;;;;;;3.35;1.55;;;;;;;29.89;25.65;94815.16;5108092;28;20024;-77
2023/07/29 09:48:38;;;;;;;5.40;1.60;;;;;;;30.02;25.16;94805.69;5108077;28;20034;-77
2023/07/29 09:51:12;;;;;;;4.18;1.88;;;;;;;30.15;25.70;94810.41;5106831;28;20525;-76
2023/07/29 09:53:47;;;;;;;5.13;2.33;;;;;;;30.36;25.09;94799.59;5109029;28;20035;-77
2023/07/29 09:56:14;;;;;;;2.38;1.55;;;;;;;30.56;24.33;94809.13;5106704;28;20479;-76
2023/07/29 09:58:40;;;;;;;2.22;1.30;;;;;;;30.66;24.59;94812.88;5106559;28;20111;-76
2023/07/29 10:01:06;;;;;;;2.92;1.27;;;;;;;30.76;24.58;94804.56;5105709;28;20410;-77
2023/07/29 10:03:32;;;;;;;2.00;1.30;;;;;;;30.97;24.02;94803.47;5107073;28;20020;-77
2023/07/29 10:06:01;;;;;;;1.60;1.10;;;;;;;31.15;23.91;94805.09;5107973;28;20542;-77
2023/07/29 10:08:27;;;;;;;6.90;1.55;;;;;;;31.39;24.06;94795.09;5105231;28;20024;-77
2023/07/29 10:10:52;;;;;;;1.80;1.50;;;;;;;31.52;23.68;94796.88;5106846;28;20054;-77
2023/07/29 10:13:18;;;;;;;4.00;1.75;;;;;;;31.67;23.63;94793.94;5106427;28;20785;-76
2023/07/29 10:15:45;;;;;;;3.55;2.10;;;;;;;31.74;22.83;94790.25;5106833;28;20463;-77
2023/07/29 10:18:11;;;;;;;2.95;1.40;;;;;;;31.92;23.14;94786.13;5106009;28;20151;-78
2023/07/29 10:20:37;;;;;;;3.13;1.77;;;;;;;32.01;23.19;94786.81;5105839;28;20023;-77
2023/07/29 10:23:05;;;;;;;3.40;1.70;;;;;;;32.18;22.75;94781.91;5107314;28;20080;-77
2023/07/29 10:25:43;;;;;;;2.55;1.45;;;;;;;32.28;22.59;94776.25;5104810;28;20053;-77
2023/07/29 10:28:11;;;;;;;3.05;1.75;;;;;;;32.43;22.64;94770.44;5106055;28;20043;-78
2023/07/29 10:30:38;;;;;;;5.47;2.85;;;;;;;32.61;22.36;94764.72;5105851;28;20104;-78
2023/07/29 10:33:04;;;;;;;3.05;2.00;;;;;;;32.77;21.75;94763.94;5106165;28;20387;-77
2023/07/29 10:35:32;;;;;;;2.40;1.45;;;;;;;32.94;22.40;94754.63;5106165;28;20023;-78
2023/07/29 10:37:57;;;;;;;3.88;1.40;;;;;;;33.18;21.58;94755.03;5105798;28;20798;-78
2023/07/29 10:40:23;;;;;;;1.40;1.15;;;;;;;33.36;20.94;94756.44;5105818;28;20030;-76
2023/07/29 10:43:02;;;;;;;2.22;1.25;;;;;;;33.54;21.23;94749.31;5106390;28;20035;-77
2023/07/29 10:45:37;;;;;;;3.95;1.25;;;;;;;33.74;20.55;94758.69;5107599;28;20353;-77
2023/07/29 10:48:06;;;;;;;3.15;1.65;;;;;;;33.88;20.72;94753.31;5106041;28;20058;-77
2023/07/29 10:50:31;;;;;;;6.82;2.47;;;;;;;34.03;20.03;94740.91;5107608;28;20081;-78
2023/07/29 10:52:57;;;;;;;2.20;1.08;;;;;;;34.20;20.60;94745.72;5106371;28;20027;-77
2023/07/29 10:55:43;;;;;;;1.63;1.00;;;;;;;34.38;19.32;94741.34;5106945;28;20516;-77
2023/07/29 10:58:13;;;;;;;2.70;1.10;;;;;;;34.54;19.87;94742.56;5106025;28;20525;-78
2023/07/29 11:00:39;;;;;;;3.50;1.00;;;;;;;34.69;19.27;94738.63;5104197;28;20024;-79
2023/07/29 11:03:07;;;;;;;2.17;1.30;;;;;;;34.82;19.61;94734.56;5107225;28;20027;-77
2023/07/29 11:05:52;;;;;;;1.77;1.17;;;;;;;34.94;18.87;94726.88;5105554;28;20034;-77
2023/07/29 11:08:31;;;;;;;2.03;0.90;;;;;;;35.02;18.70;94732.41;5106757;28;20035;-77
2023/07/29 11:11:04;;;;;;;2.20;1.00;;;;;;;35.16;18.96;94730.56;5107139;28;20027;-77
2023/07/29 11:13:30;;;;;;;3.45;1.30;;;;;;;35.29;19.03;94726.44;5105447;28;20506;-78
2023/07/29 11:15:58;;;;;;;1.55;1.10;;;;;;;35.39;18.85;94730.03;5107263;28;20032;-79
2023/07/29 11:18:30;;;;;;;2.85;1.15;;;;;;;35.52;18.07;94729.53;5105082;28;20066;-78
2023/07/29 11:20:56;;;;;;;2.63;1.00;;;;;;;35.60;17.72;94717.88;5107217;28;20027;-78
2023/07/29 11:23:29;;;;;;;2.78;1.10;;;;;;;35.75;18.16;94725.34;5106265;28;20422;-77
2023/07/29 11:25:55;;;;;;;1.35;1.00;;;;;;;35.86;18.01;94730.38;5106233;28;20020;-77
2023/07/29 11:28:21;;;;;;;3.75;1.48;;;;;;;35.90;17.06;94730.63;5107119;28;20020;-78
2023/07/29 11:30:47;;;;;;;2.20;1.10;;;;;;;35.94;17.01;94725.22;5103879;28;20467;-78